sensor_id;sensor_type;location;lat;lon;timestamp;P1;durP1;ratioP1;P2;durP2;ratioP2
65018;SDS011;66069;51.164;-114.452;2023-02-01T00:00:14;0.10;;;0.10;;
65018;SDS011;66069;51.164;-114.452;2023-02-01T00:02:41;0.13;;;0.10;;
65018;SDS011;66069;51.164;-114.452;2023-02-01T00:05:08;0.30;;;0.15;;
65018;SDS011;66069;51.164;-114.452;2023-02-01T00:07:35;0.20;;;0.17;;
65018;SDS011;66069;51.164;-114.452;2023-02-01T00:10:02;0.20;;;0.10;;
65018;SDS011;66069;51.164;-114.452;2023-02-01T00:12:30;0.10;;;0.10;;
65018;SDS011;66069;51.164;-114.452;2023-02-01T00:14:56;0.10;;;0.10;;
65018;SDS011;66069;51.164;-114.452;2023-02-01T00:17:23;1.20;;;0.20;;
65018;SDS011;66069;51.164;-114.452;2023-02-01T00:19:49;0.32;;;0.10;;
65018;SDS011;66069;51.164;-114.452;2023-02-01T00:22:16;0.10;;;0.10;;
65018;SDS011;66069;51.164;-114.452;2023-02-01T00:24:42;0.28;;;0.13;;
65018;SDS011;66069;51.164;-114.452;2023-02-01T00:27:09;0.45;;;0.20;;
65018;SDS011;66069;51.164;-114.452;2023-02-01T00:29:35;2.10;;;0.25;;
65018;SDS011;66069;51.164;-114.452;2023-02-01T00:32:02;0.52;;;0.30;;
65018;SDS011;66069;51.164;-114.452;2023-02-01T00:34:28;0.32;;;0.20;;
65018;SDS011;66069;51.164;-114.452;2023-02-01T00:36:54;0.55;;;0.30;;
65018;SDS011;66069;51.164;-114.452;2023-02-01T00:39:20;0.47;;;0.30;;
65018;SDS011;66069;51.164;-114.452;2023-02-01T00:41:47;0.30;;;0.20;;
65018;SDS011;66069;51.164;-114.452;2023-02-01T00:44:13;0.30;;;0.20;;
65018;SDS011;66069;51.164;-114.452;2023-02-01T00:46:40;0.68;;;0.30;;
65018;SDS011;66069;51.164;-114.452;2023-02-01T00:49:06;0.22;;;0.20;;
65018;SDS011;66069;51.164;-114.452;2023-02-01T00:51:34;0.63;;;0.30;;
65018;SDS011;66069;51.164;-114.452;2023-02-01T00:54:00;0.73;;;0.38;;
65018;SDS011;66069;51.164;-114.452;2023-02-01T00:56:28;1.27;;;0.30;;
65018;SDS011;66069;51.164;-114.452;2023-02-01T00:58:55;0.90;;;0.40;;
65018;SDS011;66069;51.164;-114.452;2023-02-01T01:01:23;1.08;;;0.45;;
65018;SDS011;66069;51.164;-114.452;2023-02-01T01:03:52;1.48;;;0.52;;
65018;SDS011;66069;51.164;-114.452;2023-02-01T01:06:25;1.48;;;0.60;;
65018;SDS011;66069;51.164;-114.452;2023-02-01T01:08:53;1.98;;;0.63;;
65018;SDS011;66069;51.164;-114.452;2023-02-01T01:11:22;1.98;;;0.70;;
65018;SDS011;66069;51.164;-114.452;2023-02-01T01:13:51;1.63;;;0.88;;
65018;SDS011;66069;51.164;-114.452;2023-02-01T01:16:18;2.35;;;0.88;;
65018;SDS011;66069;51.164;-114.452;2023-02-01T01:18:46;1.92;;;1.00;;
65018;SDS011;66069;51.164;-114.452;2023-02-01T01:21:13;1.92;;;0.82;;
65018;SDS011;66069;51.164;-114.452;2023-02-01T01:23:41;2.42;;;1.00;;
65018;SDS011;66069;51.164;-114.452;2023-02-01T01:26:09;2.47;;;0.95;;
65018;SDS011;66069;51.164;-114.452;2023-02-01T01:28:41;1.90;;;0.93;;
65018;SDS011;66069;51.164;-114.452;2023-02-01T01:31:08;2.53;;;1.20;;
65018;SDS011;66069;51.164;-114.452;2023-02-01T01:33:35;2.58;;;1.00;;
65018;SDS011;66069;51.164;-114.452;2023-02-01T01:36:02;2.63;;;1.20;;
65018;SDS011;66069;51.164;-114.452;2023-02-01T01:38:31;2.35;;;1.10;;
65018;SDS011;66069;51.164;-114.452;2023-02-01T01:40:57;2.83;;;1.20;;
65018;SDS011;66069;51.164;-114.452;2023-02-01T01:43:24;2.25;;;1.13;;
65018;SDS011;66069;51.164;-114.452;2023-02-01T01:45:50;1.90;;;1.02;;
65018;SDS011;66069;51.164;-114.452;2023-02-01T01:48:27;2.35;;;1.00;;
65018;SDS011;66069;51.164;-114.452;2023-02-01T01:51:02;2.63;;;1.15;;
65018;SDS011;66069;51.164;-114.452;2023-02-01T01:53:35;2.63;;;1.27;;
65018;SDS011;66069;51.164;-114.452;2023-02-01T01:56:10;2.88;;;1.20;;
65018;SDS011;66069;51.164;-114.452;2023-02-01T01:58:37;2.97;;;1.10;;
65018;SDS011;66069;51.164;-114.452;2023-02-01T02:01:04;3.40;;;1.30;;
65018;SDS011;66069;51.164;-114.452;2023-02-01T02:03:32;3.10;;;1.65;;
65018;SDS011;66069;51.164;-114.452;2023-02-01T02:06:03;3.42;;;1.45;;
65018;SDS011;66069;51.164;-114.452;2023-02-01T02:08:38;2.28;;;1.23;;
65018;SDS011;66069;51.164;-114.452;2023-02-01T02:11:05;2.63;;;1.10;;
65018;SDS011;66069;51.164;-114.452;2023-02-01T02:35:38;3.05;;;1.50;;
65018;SDS011;66069;51.164;-114.452;2023-02-01T02:41:02;3.10;;;1.50;;
65018;SDS011;66069;51.164;-114.452;2023-02-01T02:43:59;3.17;;;1.50;;
65018;SDS011;66069;51.164;-114.452;2023-02-01T02:46:51;2.90;;;1.30;;
65018;SDS011;66069;51.164;-114.452;2023-02-01T02:49:44;3.15;;;1.67;;
65018;SDS011;66069;51.164;-114.452;2023-02-01T02:52:40;2.83;;;1.20;;
65018;SDS011;66069;51.164;-114.452;2023-02-01T02:55:31;3.60;;;1.40;;
65018;SDS011;66069;51.164;-114.452;2023-02-01T02:58:02;2.28;;;1.10;;
65018;SDS011;66069;51.164;-114.452;2023-02-01T03:00:49;2.25;;;1.15;;
65018;SDS011;66069;51.164;-114.452;2023-02-01T03:03:36;3.03;;;1.40;;
65018;SDS011;66069;51.164;-114.452;2023-02-01T03:06:22;4.60;;;1.30;;
65018;SDS011;66069;51.164;-114.452;2023-02-01T03:08:51;2.58;;;1.33;;
65018;SDS011;66069;51.164;-114.452;2023-02-01T03:11:22;2.60;;;1.27;;
65018;SDS011;66069;51.164;-114.452;2023-02-01T03:14:09;2.60;;;1.20;;
65018;SDS011;66069;51.164;-114.452;2023-02-01T03:16:43;2.47;;;1.02;;
65018;SDS011;66069;51.164;-114.452;2023-02-01T03:19:25;3.05;;;1.50;;
65018;SDS011;66069;51.164;-114.452;2023-02-01T03:21:59;3.00;;;1.20;;
65018;SDS011;66069;51.164;-114.452;2023-02-01T03:24:39;2.80;;;1.50;;
65018;SDS011;66069;51.164;-114.452;2023-02-01T03:32:37;2.60;;;1.27;;
65018;SDS011;66069;51.164;-114.452;2023-02-01T03:38:28;2.50;;;1.20;;
65018;SDS011;66069;51.164;-114.452;2023-02-01T03:42:04;2.60;;;1.30;;
65018;SDS011;66069;51.164;-114.452;2023-02-01T03:46:41;2.33;;;1.13;;
65018;SDS011;66069;51.164;-114.452;2023-02-01T03:49:14;2.60;;;1.27;;
65018;SDS011;66069;51.164;-114.452;2023-02-01T03:51:46;2.83;;;1.35;;
65018;SDS011;66069;51.164;-114.452;2023-02-01T03:54:15;2.72;;;1.05;;
65018;SDS011;66069;51.164;-114.452;2023-02-01T03:56:44;2.63;;;1.00;;
65018;SDS011;66069;51.164;-114.452;2023-02-01T03:59:13;2.60;;;1.30;;
65018;SDS011;66069;51.164;-114.452;2023-02-01T04:01:40;2.35;;;1.33;;
65018;SDS011;66069;51.164;-114.452;2023-02-01T04:04:06;2.72;;;1.20;;
65018;SDS011;66069;51.164;-114.452;2023-02-01T04:06:34;3.20;;;1.23;;
65018;SDS011;66069;51.164;-114.452;2023-02-01T04:09:01;2.58;;;1.00;;
65018;SDS011;66069;51.164;-114.452;2023-02-01T04:11:28;2.30;;;1.30;;
65018;SDS011;66069;51.164;-114.452;2023-02-01T04:13:54;2.95;;;1.10;;
65018;SDS011;66069;51.164;-114.452;2023-02-01T04:16:20;2.28;;;1.13;;
65018;SDS011;66069;51.164;-114.452;2023-02-01T04:18:47;2.25;;;0.95;;
65018;SDS011;66069;51.164;-114.452;2023-02-01T04:21:13;2.70;;;1.20;;
65018;SDS011;66069;51.164;-114.452;2023-02-01T04:23:39;3.08;;;1.20;;
65018;SDS011;66069;51.164;-114.452;2023-02-01T04:26:06;2.42;;;1.02;;
65018;SDS011;66069;51.164;-114.452;2023-02-01T04:28:32;2.28;;;1.10;;
65018;SDS011;66069;51.164;-114.452;2023-02-01T04:30:58;2.47;;;1.15;;
65018;SDS011;66069;51.164;-114.452;2023-02-01T04:33:27;3.15;;;1.38;;
65018;SDS011;66069;51.164;-114.452;2023-02-01T04:35:53;3.05;;;1.00;;
65018;SDS011;66069;51.164;-114.452;2023-02-01T04:38:20;2.47;;;0.93;;
65018;SDS011;66069;51.164;-114.452;2023-02-01T04:40:47;1.88;;;0.90;;
65018;SDS011;66069;51.164;-114.452;2023-02-01T04:43:14;2.50;;;1.08;;
65018;SDS011;66069;51.164;-114.452;2023-02-01T04:45:41;2.10;;;1.00;;
65018;SDS011;66069;51.164;-114.452;2023-02-01T04:48:11;2.35;;;1.20;;
65018;SDS011;66069;51.164;-114.452;2023-02-01T04:50:38;2.50;;;1.00;;
65018;SDS011;66069;51.164;-114.452;2023-02-01T04:53:07;2.22;;;0.93;;
65018;SDS011;66069;51.164;-114.452;2023-02-01T04:55:33;2.47;;;1.10;;
65018;SDS011;66069;51.164;-114.452;2023-02-01T04:57:59;2.70;;;1.08;;
65018;SDS011;66069;51.164;-114.452;2023-02-01T05:00:26;2.15;;;0.80;;
65018;SDS011;66069;51.164;-114.452;2023-02-01T05:02:52;1.90;;;1.00;;
65018;SDS011;66069;51.164;-114.452;2023-02-01T05:05:18;1.80;;;0.90;;
65018;SDS011;66069;51.164;-114.452;2023-02-01T05:07:45;2.35;;;0.95;;
65018;SDS011;66069;51.164;-114.452;2023-02-01T05:10:12;1.58;;;0.70;;
65018;SDS011;66069;51.164;-114.452;2023-02-01T05:12:38;2.20;;;1.10;;
65018;SDS011;66069;51.164;-114.452;2023-02-01T05:15:23;1.92;;;0.80;;
65018;SDS011;66069;51.164;-114.452;2023-02-01T05:17:49;2.72;;;1.00;;
65018;SDS011;66069;51.164;-114.452;2023-02-01T05:20:15;1.80;;;0.90;;
65018;SDS011;66069;51.164;-114.452;2023-02-01T05:22:42;2.38;;;0.93;;
65018;SDS011;66069;51.164;-114.452;2023-02-01T05:25:08;2.05;;;0.85;;
65018;SDS011;66069;51.164;-114.452;2023-02-01T05:27:34;3.00;;;1.10;;
65018;SDS011;66069;51.164;-114.452;2023-02-01T05:30:02;1.80;;;0.90;;
65018;SDS011;66069;51.164;-114.452;2023-02-01T05:32:30;2.30;;;1.15;;
65018;SDS011;66069;51.164;-114.452;2023-02-01T05:34:56;2.67;;;1.15;;
65018;SDS011;66069;51.164;-114.452;2023-02-01T05:37:22;2.50;;;0.90;;
65018;SDS011;66069;51.164;-114.452;2023-02-01T05:39:49;2.05;;;0.90;;
65018;SDS011;66069;51.164;-114.452;2023-02-01T05:42:15;2.30;;;0.90;;
65018;SDS011;66069;51.164;-114.452;2023-02-01T05:44:41;3.83;;;1.10;;
65018;SDS011;66069;51.164;-114.452;2023-02-01T05:47:08;2.15;;;0.90;;
65018;SDS011;66069;51.164;-114.452;2023-02-01T05:49:34;1.77;;;0.70;;
65018;SDS011;66069;51.164;-114.452;2023-02-01T05:52:01;1.60;;;0.80;;
65018;SDS011;66069;51.164;-114.452;2023-02-01T05:54:27;1.70;;;0.90;;
65018;SDS011;66069;51.164;-114.452;2023-02-01T05:56:54;2.20;;;0.90;;
65018;SDS011;66069;51.164;-114.452;2023-02-01T05:59:20;1.95;;;0.70;;
65018;SDS011;66069;51.164;-114.452;2023-02-01T06:01:47;1.92;;;0.95;;
65018;SDS011;66069;51.164;-114.452;2023-02-01T06:04:13;1.90;;;0.93;;
65018;SDS011;66069;51.164;-114.452;2023-02-01T06:06:39;2.05;;;0.80;;
65018;SDS011;66069;51.164;-114.452;2023-02-01T06:09:06;1.60;;;0.77;;
65018;SDS011;66069;51.164;-114.452;2023-02-01T06:11:32;1.55;;;0.73;;
65018;SDS011;66069;51.164;-114.452;2023-02-01T06:13:59;2.13;;;0.82;;
65018;SDS011;66069;51.164;-114.452;2023-02-01T06:16:25;1.83;;;0.80;;
65018;SDS011;66069;51.164;-114.452;2023-02-01T06:18:52;2.40;;;0.90;;
65018;SDS011;66069;51.164;-114.452;2023-02-01T06:21:19;1.73;;;0.80;;
65018;SDS011;66069;51.164;-114.452;2023-02-01T06:23:55;1.92;;;1.00;;
65018;SDS011;66069;51.164;-114.452;2023-02-01T06:26:23;1.45;;;0.70;;
65018;SDS011;66069;51.164;-114.452;2023-02-01T06:28:49;2.28;;;0.93;;
65018;SDS011;66069;51.164;-114.452;2023-02-01T06:31:15;1.38;;;0.60;;
65018;SDS011;66069;51.164;-114.452;2023-02-01T06:33:42;1.83;;;0.73;;
65018;SDS011;66069;51.164;-114.452;2023-02-01T06:36:09;1.63;;;0.90;;
65018;SDS011;66069;51.164;-114.452;2023-02-01T06:38:41;2.05;;;0.88;;
65018;SDS011;66069;51.164;-114.452;2023-02-01T06:41:08;2.80;;;1.05;;
65018;SDS011;66069;51.164;-114.452;2023-02-01T06:43:36;2.20;;;0.75;;
65018;SDS011;66069;51.164;-114.452;2023-02-01T06:46:06;2.13;;;0.70;;
65018;SDS011;66069;51.164;-114.452;2023-02-01T06:48:35;1.70;;;0.80;;
65018;SDS011;66069;51.164;-114.452;2023-02-01T06:51:01;1.92;;;0.70;;
65018;SDS011;66069;51.164;-114.452;2023-02-01T06:53:27;1.08;;;0.70;;
65018;SDS011;66069;51.164;-114.452;2023-02-01T06:56:01;1.92;;;0.82;;
65018;SDS011;66069;51.164;-114.452;2023-02-01T06:58:32;1.67;;;0.80;;
65018;SDS011;66069;51.164;-114.452;2023-02-01T07:01:05;1.98;;;0.90;;
65018;SDS011;66069;51.164;-114.452;2023-02-01T07:03:33;1.75;;;0.73;;
65018;SDS011;66069;51.164;-114.452;2023-02-01T07:05:59;2.20;;;1.00;;
65018;SDS011;66069;51.164;-114.452;2023-02-01T07:08:29;2.30;;;0.80;;
65018;SDS011;66069;51.164;-114.452;2023-02-01T07:10:57;1.35;;;0.55;;
65018;SDS011;66069;51.164;-114.452;2023-02-01T07:13:27;1.80;;;0.70;;
65018;SDS011;66069;51.164;-114.452;2023-02-01T07:15:54;2.00;;;0.80;;
65018;SDS011;66069;51.164;-114.452;2023-02-01T07:18:22;1.30;;;0.63;;
65018;SDS011;66069;51.164;-114.452;2023-02-01T07:20:50;1.55;;;0.60;;
65018;SDS011;66069;51.164;-114.452;2023-02-01T07:23:16;2.22;;;0.90;;
65018;SDS011;66069;51.164;-114.452;2023-02-01T07:25:43;1.38;;;0.65;;
65018;SDS011;66069;51.164;-114.452;2023-02-01T07:28:09;0.85;;;0.47;;
65018;SDS011;66069;51.164;-114.452;2023-02-01T07:30:35;1.92;;;0.70;;
65018;SDS011;66069;51.164;-114.452;2023-02-01T07:33:02;1.60;;;0.70;;
65018;SDS011;66069;51.164;-114.452;2023-02-01T07:35:28;1.45;;;0.65;;
65018;SDS011;66069;51.164;-114.452;2023-02-01T07:37:57;1.80;;;0.88;;
65018;SDS011;66069;51.164;-114.452;2023-02-01T07:40:24;2.03;;;0.82;;
65018;SDS011;66069;51.164;-114.452;2023-02-01T07:42:56;1.58;;;0.75;;
65018;SDS011;66069;51.164;-114.452;2023-02-01T07:45:23;2.05;;;0.95;;
65018;SDS011;66069;51.164;-114.452;2023-02-01T07:47:51;1.58;;;0.70;;
65018;SDS011;66069;51.164;-114.452;2023-02-01T07:50:18;1.55;;;0.70;;
65018;SDS011;66069;51.164;-114.452;2023-02-01T07:52:45;1.30;;;0.60;;
65018;SDS011;66069;51.164;-114.452;2023-02-01T07:55:11;2.13;;;0.70;;
65018;SDS011;66069;51.164;-114.452;2023-02-01T07:57:38;1.80;;;0.70;;
65018;SDS011;66069;51.164;-114.452;2023-02-01T08:00:04;1.40;;;0.70;;
65018;SDS011;66069;51.164;-114.452;2023-02-01T08:02:49;2.33;;;0.88;;
65018;SDS011;66069;51.164;-114.452;2023-02-01T08:05:15;1.30;;;0.68;;
65018;SDS011;66069;51.164;-114.452;2023-02-01T08:07:41;2.15;;;0.80;;
65018;SDS011;66069;51.164;-114.452;2023-02-01T08:10:08;1.08;;;0.45;;
65018;SDS011;66069;51.164;-114.452;2023-02-01T08:12:38;1.67;;;0.70;;
65018;SDS011;66069;51.164;-114.452;2023-02-01T08:15:04;1.27;;;0.70;;
65018;SDS011;66069;51.164;-114.452;2023-02-01T08:17:31;1.27;;;0.80;;
65018;SDS011;66069;51.164;-114.452;2023-02-01T08:19:57;2.20;;;0.70;;
65018;SDS011;66069;51.164;-114.452;2023-02-01T08:22:23;2.20;;;0.80;;
65018;SDS011;66069;51.164;-114.452;2023-02-01T08:24:50;0.77;;;0.50;;
65018;SDS011;66069;51.164;-114.452;2023-02-01T08:27:17;1.63;;;0.70;;
65018;SDS011;66069;51.164;-114.452;2023-02-01T08:29:43;1.50;;;0.70;;
65018;SDS011;66069;51.164;-114.452;2023-02-01T08:32:09;1.42;;;0.60;;
65018;SDS011;66069;51.164;-114.452;2023-02-01T08:34:36;1.63;;;0.68;;
65018;SDS011;66069;51.164;-114.452;2023-02-01T08:37:02;1.58;;;0.70;;
65018;SDS011;66069;51.164;-114.452;2023-02-01T08:39:28;0.98;;;0.52;;
65018;SDS011;66069;51.164;-114.452;2023-02-01T08:41:54;1.40;;;0.60;;
65018;SDS011;66069;51.164;-114.452;2023-02-01T08:44:39;1.52;;;0.70;;
65018;SDS011;66069;51.164;-114.452;2023-02-01T08:47:05;1.63;;;0.60;;
65018;SDS011;66069;51.164;-114.452;2023-02-01T08:49:32;1.23;;;0.60;;
65018;SDS011;66069;51.164;-114.452;2023-02-01T08:51:58;1.13;;;0.57;;
65018;SDS011;66069;51.164;-114.452;2023-02-01T08:54:24;1.08;;;0.52;;
65018;SDS011;66069;51.164;-114.452;2023-02-01T08:56:51;0.95;;;0.60;;
65018;SDS011;66069;51.164;-114.452;2023-02-01T08:59:18;2.20;;;0.65;;
65018;SDS011;66069;51.164;-114.452;2023-02-01T09:01:45;2.03;;;0.80;;
65018;SDS011;66069;51.164;-114.452;2023-02-01T09:04:11;1.42;;;0.60;;
65018;SDS011;66069;51.164;-114.452;2023-02-01T09:06:39;1.85;;;1.10;;
65018;SDS011;66069;51.164;-114.452;2023-02-01T09:09:06;2.33;;;0.90;;
65018;SDS011;66069;51.164;-114.452;2023-02-01T09:11:33;1.40;;;0.57;;
65018;SDS011;66069;51.164;-114.452;2023-02-01T09:14:00;1.48;;;0.70;;
65018;SDS011;66069;51.164;-114.452;2023-02-01T09:16:26;1.10;;;0.50;;
65018;SDS011;66069;51.164;-114.452;2023-02-01T09:18:52;0.98;;;0.50;;
65018;SDS011;66069;51.164;-114.452;2023-02-01T09:21:18;1.40;;;0.70;;
65018;SDS011;66069;51.164;-114.452;2023-02-01T09:23:45;1.17;;;0.55;;
65018;SDS011;66069;51.164;-114.452;2023-02-01T09:26:13;1.55;;;0.52;;
65018;SDS011;66069;51.164;-114.452;2023-02-01T09:28:40;1.67;;;0.60;;
65018;SDS011;66069;51.164;-114.452;2023-02-01T09:31:06;1.63;;;0.68;;
65018;SDS011;66069;51.164;-114.452;2023-02-01T09:33:33;1.35;;;0.63;;
65018;SDS011;66069;51.164;-114.452;2023-02-01T09:36:00;1.17;;;0.57;;
65018;SDS011;66069;51.164;-114.452;2023-02-01T09:38:29;1.10;;;0.50;;
65018;SDS011;66069;51.164;-114.452;2023-02-01T09:40:57;1.30;;;0.60;;
65018;SDS011;66069;51.164;-114.452;2023-02-01T09:46:26;1.40;;;0.70;;
65018;SDS011;66069;51.164;-114.452;2023-02-01T09:48:56;1.58;;;0.60;;
65018;SDS011;66069;51.164;-114.452;2023-02-01T09:51:32;1.42;;;0.77;;
65018;SDS011;66069;51.164;-114.452;2023-02-01T10:01:52;1.33;;;0.70;;
65018;SDS011;66069;51.164;-114.452;2023-02-01T10:04:19;1.35;;;0.80;;
65018;SDS011;66069;51.164;-114.452;2023-02-01T10:09:45;1.70;;;0.60;;
65018;SDS011;66069;51.164;-114.452;2023-02-01T10:25:55;1.55;;;0.60;;
65018;SDS011;66069;51.164;-114.452;2023-02-01T10:28:30;1.50;;;0.50;;
65018;SDS011;66069;51.164;-114.452;2023-02-01T10:31:02;1.23;;;0.60;;
65018;SDS011;66069;51.164;-114.452;2023-02-01T10:38:51;1.00;;;0.40;;
65018;SDS011;66069;51.164;-114.452;2023-02-01T10:41:20;1.17;;;0.57;;
65018;SDS011;66069;51.164;-114.452;2023-02-01T10:43:50;1.70;;;0.60;;
65018;SDS011;66069;51.164;-114.452;2023-02-01T10:46:20;1.42;;;0.77;;
65018;SDS011;66069;51.164;-114.452;2023-02-01T10:48:48;1.15;;;0.50;;
65018;SDS011;66069;51.164;-114.452;2023-02-01T10:51:21;1.25;;;0.50;;
65018;SDS011;66069;51.164;-114.452;2023-02-01T10:54:16;0.82;;;0.40;;
65018;SDS011;66069;51.164;-114.452;2023-02-01T10:56:46;1.38;;;0.50;;
65018;SDS011;66069;51.164;-114.452;2023-02-01T10:59:15;0.90;;;0.40;;
65018;SDS011;66069;51.164;-114.452;2023-02-01T11:01:44;1.17;;;0.50;;
65018;SDS011;66069;51.164;-114.452;2023-02-01T11:04:18;1.10;;;0.45;;
65018;SDS011;66069;51.164;-114.452;2023-02-01T11:06:51;1.02;;;0.57;;
65018;SDS011;66069;51.164;-114.452;2023-02-01T11:09:30;1.85;;;0.50;;
65018;SDS011;66069;51.164;-114.452;2023-02-01T11:11:57;1.27;;;0.50;;
65018;SDS011;66069;51.164;-114.452;2023-02-01T11:16:58;1.38;;;0.65;;
65018;SDS011;66069;51.164;-114.452;2023-02-01T11:19:47;1.17;;;0.50;;
65018;SDS011;66069;51.164;-114.452;2023-02-01T11:22:24;1.58;;;0.68;;
65018;SDS011;66069;51.164;-114.452;2023-02-01T11:24:53;1.02;;;0.50;;
65018;SDS011;66069;51.164;-114.452;2023-02-01T11:27:20;1.13;;;0.40;;
65018;SDS011;66069;51.164;-114.452;2023-02-01T11:29:50;2.13;;;0.70;;
65018;SDS011;66069;51.164;-114.452;2023-02-01T11:32:20;2.00;;;0.82;;
65018;SDS011;66069;51.164;-114.452;2023-02-01T11:34:49;0.73;;;0.40;;
65018;SDS011;66069;51.164;-114.452;2023-02-01T11:37:30;1.05;;;0.43;;
65018;SDS011;66069;51.164;-114.452;2023-02-01T11:40:01;0.82;;;0.47;;
65018;SDS011;66069;51.164;-114.452;2023-02-01T11:42:34;0.60;;;0.40;;
65018;SDS011;66069;51.164;-114.452;2023-02-01T11:45:24;1.10;;;0.50;;
65018;SDS011;66069;51.164;-114.452;2023-02-01T11:47:52;1.27;;;0.55;;
65018;SDS011;66069;51.164;-114.452;2023-02-01T11:50:35;1.35;;;0.60;;
65018;SDS011;66069;51.164;-114.452;2023-02-01T11:53:46;0.93;;;0.40;;
65018;SDS011;66069;51.164;-114.452;2023-02-01T12:10:40;1.30;;;0.50;;
65018;SDS011;66069;51.164;-114.452;2023-02-01T12:36:02;0.90;;;0.45;;
65018;SDS011;66069;51.164;-114.452;2023-02-01T12:39:02;1.50;;;0.47;;
65018;SDS011;66069;51.164;-114.452;2023-02-01T12:52:07;0.40;;;0.20;;
65018;SDS011;66069;51.164;-114.452;2023-02-01T12:57:15;0.68;;;0.35;;
65018;SDS011;66069;51.164;-114.452;2023-02-01T12:59:53;0.52;;;0.30;;
65018;SDS011;66069;51.164;-114.452;2023-02-01T13:02:40;0.60;;;0.30;;
65018;SDS011;66069;51.164;-114.452;2023-02-01T13:05:29;1.33;;;0.30;;
65018;SDS011;66069;51.164;-114.452;2023-02-01T13:08:05;0.80;;;0.22;;
65018;SDS011;66069;51.164;-114.452;2023-02-01T13:10:41;0.50;;;0.30;;
65018;SDS011;66069;51.164;-114.452;2023-02-01T13:15:56;1.02;;;0.40;;
65018;SDS011;66069;51.164;-114.452;2023-02-01T13:18:32;0.38;;;0.25;;
65018;SDS011;66069;51.164;-114.452;2023-02-01T13:21:03;0.70;;;0.30;;
65018;SDS011;66069;51.164;-114.452;2023-02-01T13:23:35;0.20;;;0.20;;
65018;SDS011;66069;51.164;-114.452;2023-02-01T13:26:04;0.40;;;0.22;;
65018;SDS011;66069;51.164;-114.452;2023-02-01T13:29:04;0.20;;;0.20;;
65018;SDS011;66069;51.164;-114.452;2023-02-01T13:42:15;0.30;;;0.20;;
65018;SDS011;66069;51.164;-114.452;2023-02-01T13:44:52;0.43;;;0.22;;
65018;SDS011;66069;51.164;-114.452;2023-02-01T13:47:30;0.10;;;0.10;;
65018;SDS011;66069;51.164;-114.452;2023-02-01T13:50:00;0.10;;;0.10;;
65018;SDS011;66069;51.164;-114.452;2023-02-01T13:52:43;0.20;;;0.13;;
65018;SDS011;66069;51.164;-114.452;2023-02-01T13:55:23;0.32;;;0.17;;
65018;SDS011;66069;51.164;-114.452;2023-02-01T13:58:03;0.20;;;0.10;;
65018;SDS011;66069;51.164;-114.452;2023-02-01T14:00:31;0.30;;;0.20;;
65018;SDS011;66069;51.164;-114.452;2023-02-01T14:10:50;0.10;;;0.10;;
65018;SDS011;66069;51.164;-114.452;2023-02-01T14:13:32;0.10;;;0.10;;
65018;SDS011;66069;51.164;-114.452;2023-02-01T14:23:40;0.17;;;0.10;;
65018;SDS011;66069;51.164;-114.452;2023-02-01T14:26:09;0.00;;;0.00;;
65018;SDS011;66069;51.164;-114.452;2023-02-01T14:28:39;0.10;;;0.10;;
65018;SDS011;66069;51.164;-114.452;2023-02-01T14:31:22;0.10;;;0.10;;
65018;SDS011;66069;51.164;-114.452;2023-02-01T14:34:15;0.10;;;0.10;;
65018;SDS011;66069;51.164;-114.452;2023-02-01T14:36:49;0.10;;;0.10;;
65018;SDS011;66069;51.164;-114.452;2023-02-01T14:39:20;0.20;;;0.10;;
65018;SDS011;66069;51.164;-114.452;2023-02-01T14:41:56;0.10;;;0.10;;
65018;SDS011;66069;51.164;-114.452;2023-02-01T14:44:27;0.10;;;0.10;;
65018;SDS011;66069;51.164;-114.452;2023-02-01T14:52:33;0.10;;;0.10;;
65018;SDS011;66069;51.164;-114.452;2023-02-01T14:58:00;0.10;;;0.10;;
65018;SDS011;66069;51.164;-114.452;2023-02-01T15:00:31;0.13;;;0.10;;
65018;SDS011;66069;51.164;-114.452;2023-02-01T15:06:01;0.10;;;0.10;;
65018;SDS011;66069;51.164;-114.452;2023-02-01T15:08:33;0.10;;;0.10;;
65018;SDS011;66069;51.164;-114.452;2023-02-01T15:11:05;0.13;;;0.13;;
65018;SDS011;66069;51.164;-114.452;2023-02-01T15:13:36;0.20;;;0.20;;
65018;SDS011;66069;51.164;-114.452;2023-02-01T15:16:10;0.10;;;0.10;;
65018;SDS011;66069;51.164;-114.452;2023-02-01T15:18:39;0.10;;;0.10;;
65018;SDS011;66069;51.164;-114.452;2023-02-01T15:21:07;0.10;;;0.10;;
65018;SDS011;66069;51.164;-114.452;2023-02-01T15:23:45;0.25;;;0.10;;
65018;SDS011;66069;51.164;-114.452;2023-02-01T15:26:29;0.00;;;0.00;;
65018;SDS011;66069;51.164;-114.452;2023-02-01T15:28:57;0.10;;;0.10;;
65018;SDS011;66069;51.164;-114.452;2023-02-01T15:31:34;0.10;;;0.10;;
65018;SDS011;66069;51.164;-114.452;2023-02-01T15:34:02;0.10;;;0.10;;
65018;SDS011;66069;51.164;-114.452;2023-02-01T15:36:29;0.10;;;0.10;;
65018;SDS011;66069;51.164;-114.452;2023-02-01T15:41:45;0.10;;;0.10;;
65018;SDS011;66069;51.164;-114.452;2023-02-01T15:44:17;0.10;;;0.10;;
65018;SDS011;66069;51.164;-114.452;2023-02-01T15:46:46;0.10;;;0.10;;
65018;SDS011;66069;51.164;-114.452;2023-02-01T15:49:18;0.10;;;0.10;;
65018;SDS011;66069;51.164;-114.452;2023-02-01T15:51:55;0.15;;;0.10;;
65018;SDS011;66069;51.164;-114.452;2023-02-01T15:54:28;0.10;;;0.10;;
65018;SDS011;66069;51.164;-114.452;2023-02-01T15:57:07;0.08;;;0.08;;
65018;SDS011;66069;51.164;-114.452;2023-02-01T15:59:37;0.10;;;0.10;;
65018;SDS011;66069;51.164;-114.452;2023-02-01T16:05:38;0.10;;;0.10;;
65018;SDS011;66069;51.164;-114.452;2023-02-01T16:10:44;0.35;;;0.20;;
65018;SDS011;66069;51.164;-114.452;2023-02-01T16:13:13;0.28;;;0.20;;
65018;SDS011;66069;51.164;-114.452;2023-02-01T16:15:41;0.10;;;0.10;;
65018;SDS011;66069;51.164;-114.452;2023-02-01T16:18:07;0.20;;;0.15;;
65018;SDS011;66069;51.164;-114.452;2023-02-01T16:20:35;0.10;;;0.10;;
65018;SDS011;66069;51.164;-114.452;2023-02-01T16:23:03;0.10;;;0.10;;
65018;SDS011;66069;51.164;-114.452;2023-02-01T16:25:30;0.10;;;0.10;;
65018;SDS011;66069;51.164;-114.452;2023-02-01T16:27:57;0.15;;;0.15;;
65018;SDS011;66069;51.164;-114.452;2023-02-01T16:30:23;0.15;;;0.15;;
65018;SDS011;66069;51.164;-114.452;2023-02-01T16:32:53;0.28;;;0.20;;
65018;SDS011;66069;51.164;-114.452;2023-02-01T16:35:29;0.20;;;0.20;;
65018;SDS011;66069;51.164;-114.452;2023-02-01T16:38:11;0.10;;;0.10;;
65018;SDS011;66069;51.164;-114.452;2023-02-01T16:40:39;0.20;;;0.17;;
65018;SDS011;66069;51.164;-114.452;2023-02-01T16:43:20;0.43;;;0.20;;
65018;SDS011;66069;51.164;-114.452;2023-02-01T16:45:49;0.10;;;0.10;;
65018;SDS011;66069;51.164;-114.452;2023-02-01T16:48:24;0.10;;;0.10;;
65018;SDS011;66069;51.164;-114.452;2023-02-01T16:50:59;0.20;;;0.20;;
65018;SDS011;66069;51.164;-114.452;2023-02-01T16:53:28;0.15;;;0.15;;
65018;SDS011;66069;51.164;-114.452;2023-02-01T16:55:56;0.20;;;0.20;;
65018;SDS011;66069;51.164;-114.452;2023-02-01T16:58:23;0.20;;;0.20;;
65018;SDS011;66069;51.164;-114.452;2023-02-01T17:00:50;0.38;;;0.25;;
65018;SDS011;66069;51.164;-114.452;2023-02-01T17:03:18;0.32;;;0.20;;
65018;SDS011;66069;51.164;-114.452;2023-02-01T17:05:54;0.20;;;0.20;;
65018;SDS011;66069;51.164;-114.452;2023-02-01T17:08:31;0.38;;;0.22;;
65018;SDS011;66069;51.164;-114.452;2023-02-01T17:11:01;0.20;;;0.20;;
65018;SDS011;66069;51.164;-114.452;2023-02-01T17:13:29;0.20;;;0.20;;
65018;SDS011;66069;51.164;-114.452;2023-02-01T17:16:03;0.20;;;0.20;;
65018;SDS011;66069;51.164;-114.452;2023-02-01T17:18:34;0.45;;;0.30;;